Time;durP1;ratioP1;P1;durP2;ratioP2;P2;SDS_P1;SDS_P2;PMS_P1;PMS_P2;Temp;Humidity;BMP_temperature;BMP_pressure;BME280_temperature;BME280_humidity;BME280_pressure;Samples;Min_cycle;Max_cycle;Signal;HPM_P1;HPM_P2
2022/02/27 00:01:26;;;;;;;9.50;5.32;;;3.30;99.90;;;;;;5138417;27;20676;-69
2022/02/27 00:03:53;;;;;;;7.82;4.97;;;3.30;99.90;;;;;;5138438;27;20310;-69
2022/02/27 00:06:20;;;;;;;9.50;6.20;;;3.20;99.90;;;;;;5138142;27;20254;-69
2022/02/27 00:08:48;;;;;;;10.57;6.10;;;3.20;99.90;;;;;;5138190;27;20263;-69
2022/02/27 00:11:15;;;;;;;9.43;6.45;;;3.20;99.90;;;;;;5138147;27;20207;-68
2022/02/27 00:13:42;;;;;;;9.85;6.63;;;3.10;99.90;;;;;;5138256;27;20226;-69
2022/02/27 00:16:09;;;;;;;11.98;6.78;;;3.10;99.90;;;;;;5138049;27;20291;-69
2022/02/27 00:18:36;;;;;;;8.85;6.45;;;3.00;99.90;;;;;;5138108;27;20223;-69
2022/02/27 00:21:02;;;;;;;9.52;7.63;;;2.90;99.90;;;;;;5137898;27;20203;-68
2022/02/27 00:23:29;;;;;;;13.88;8.55;;;2.90;99.90;;;;;;5137950;27;20200;-69
2022/02/27 00:25:57;;;;;;;12.70;7.50;;;2.90;99.90;;;;;;5138032;27;20196;-69
2022/02/27 00:28:24;;;;;;;15.90;7.35;;;2.90;99.90;;;;;;5137727;27;20225;-69
2022/02/27 00:30:51;;;;;;;10.25;7.78;;;2.90;99.90;;;;;;5137652;27;20200;-69
2022/02/27 00:33:18;;;;;;;11.18;7.85;;;2.90;99.90;;;;;;5137964;27;20204;-69
2022/02/27 00:35:45;;;;;;;13.60;7.03;;;2.80;99.90;;;;;;5137895;27;20204;-69
2022/02/27 00:38:12;;;;;;;12.45;8.18;;;2.80;99.90;;;;;;5137416;27;20767;-69
2022/02/27 00:40:39;;;;;;;12.25;8.50;;;2.80;99.90;;;;;;5137575;27;20274;-68
2022/02/27 00:43:08;;;;;;;12.98;8.18;;;2.80;99.90;;;;;;5137590;27;20200;-69
2022/02/27 00:45:35;;;;;;;15.32;7.70;;;2.80;99.90;;;;;;5137588;27;20207;-69
2022/02/27 00:48:01;;;;;;;8.80;6.88;;;2.80;99.90;;;;;;5137270;27;20228;-69
2022/02/27 00:50:28;;;;;;;9.90;5.53;;;2.90;99.90;;;;;;5137425;27;20232;-68
2022/02/27 00:52:55;;;;;;;12.57;6.00;;;2.90;99.90;;;;;;5137562;27;20296;-69
2022/02/27 00:55:22;;;;;;;7.57;4.95;;;2.90;99.90;;;;;;5137490;27;20203;-69
2022/02/27 00:57:50;;;;;;;9.50;5.75;;;2.90;99.90;;;;;;5137321;27;20299;-69
2022/02/27 01:00:18;;;;;;;9.63;4.75;;;2.90;99.90;;;;;;5137086;27;20287;-68
2022/02/27 01:02:45;;;;;;;10.27;5.20;;;2.90;99.90;;;;;;5137145;27;20211;-69
2022/02/27 01:05:12;;;;;;;9.05;5.78;;;2.90;99.90;;;;;;5136969;27;20215;-69
2022/02/27 01:07:39;;;;;;;14.63;6.05;;;2.90;99.90;;;;;;5136989;27;20253;-69
2022/02/27 01:10:07;;;;;;;9.52;6.50;;;2.90;99.90;;;;;;5137026;27;20207;-68
2022/02/27 01:12:34;;;;;;;10.45;7.05;;;2.90;99.90;;;;;;5137114;27;20287;-69
2022/02/27 01:15:00;;;;;;;14.00;8.02;;;2.90;99.90;;;;;;5136908;27;20200;-69
2022/02/27 01:17:29;;;;;;;14.63;8.88;;;2.80;99.90;;;;;;5136983;27;20223;-69
2022/02/27 01:19:55;;;;;;;12.38;8.70;;;2.80;99.90;;;;;;5136663;27;20201;-69
2022/02/27 01:22:22;;;;;;;10.60;6.00;;;2.80;99.90;;;;;;5136758;27;20292;-69
2022/02/27 01:24:49;;;;;;;9.20;6.07;;;2.70;99.90;;;;;;5136725;27;20200;-69
2022/02/27 01:27:16;;;;;;;7.47;5.78;;;2.50;99.90;;;;;;5136493;27;20323;-69
2022/02/27 01:29:43;;;;;;;6.72;4.90;;;2.50;99.90;;;;;;5136505;27;20287;-68
2022/02/27 01:32:10;;;;;;;7.25;4.70;;;2.40;99.90;;;;;;5136685;27;20203;-68
2022/02/27 01:34:38;;;;;;;8.88;5.07;;;2.40;99.90;;;;;;5136660;27;20201;-69
2022/02/27 01:37:05;;;;;;;6.07;4.45;;;2.30;99.90;;;;;;5136176;27;20221;-69
2022/02/27 01:39:32;;;;;;;10.00;4.30;;;2.30;99.90;;;;;;5136564;27;20203;-69
2022/02/27 01:41:59;;;;;;;6.22;4.40;;;2.30;99.90;;;;;;5136104;27;20673;-69
2022/02/27 01:44:26;;;;;;;6.70;4.72;;;2.30;99.90;;;;;;5136290;27;20204;-69
2022/02/27 01:46:59;;;;;;;7.18;3.90;;;2.20;99.90;;;;;;5136144;27;20295;-69
2022/02/27 01:49:27;;;;;;;6.38;4.20;;;2.20;99.90;;;;;;5136311;27;20589;-69
2022/02/27 01:51:55;;;;;;;6.45;4.65;;;2.20;99.90;;;;;;5136061;27;20566;-69
2022/02/27 01:54:22;;;;;;;7.80;4.50;;;2.20;99.90;;;;;;5136075;27;20235;-68
2022/02/27 01:56:49;;;;;;;8.45;3.95;;;2.20;99.90;;;;;;5135894;27;20207;-68
2022/02/27 01:59:17;;;;;;;5.70;4.97;;;2.20;99.90;;;;;;5136095;27;20193;-68
2022/02/27 02:01:44;;;;;;;6.18;4.15;;;2.20;99.90;;;;;;5135853;27;20197;-69
2022/02/27 02:04:11;;;;;;;5.85;4.72;;;2.30;99.90;;;;;;5136019;27;20295;-69
2022/02/27 02:06:37;;;;;;;7.60;4.72;;;2.20;99.90;;;;;;5135757;27;20544;-69
2022/02/27 02:09:06;;;;;;;7.65;4.75;;;2.10;99.90;;;;;;5135682;27;20307;-68
2022/02/27 02:11:33;;;;;;;7.43;4.95;;;2.10;99.90;;;;;;5135607;27;20223;-69
2022/02/27 02:14:02;;;;;;;8.18;4.88;;;2.00;99.90;;;;;;5135184;27;20203;-69
2022/02/27 02:16:39;;;;;;;8.25;5.28;;;2.00;99.90;;;;;;5135753;27;20554;-69
2022/02/27 02:19:06;;;;;;;8.30;4.90;;;2.10;99.90;;;;;;5135873;27;20200;-69
2022/02/27 02:21:39;;;;;;;9.00;4.68;;;2.10;99.90;;;;;;5135091;27;20201;-68
2022/02/27 02:24:06;;;;;;;6.32;4.75;;;2.10;99.90;;;;;;5135682;27;20561;-68
2022/02/27 02:26:35;;;;;;;9.55;5.20;;;2.10;99.90;;;;;;5135833;27;20631;-69
2022/02/27 02:29:02;;;;;;;8.80;4.57;;;2.10;99.90;;;;;;5135537;27;20247;-69
2022/02/27 02:31:29;;;;;;;11.13;5.85;;;2.10;99.90;;;;;;5135172;27;20292;-68
2022/02/27 02:33:55;;;;;;;6.45;4.95;;;2.10;99.90;;;;;;5135431;27;20196;-69
2022/02/27 02:36:22;;;;;;;6.55;4.70;;;2.00;99.90;;;;;;5135006;27;20741;-69
2022/02/27 02:38:50;;;;;;;10.85;4.60;;;2.00;99.90;;;;;;5134895;27;20694;-69
2022/02/27 02:41:17;;;;;;;5.72;4.70;;;1.90;99.90;;;;;;5135068;27;20204;-68
2022/02/27 02:43:47;;;;;;;7.30;4.90;;;1.90;99.90;;;;;;5135228;27;20197;-69
2022/02/27 02:46:14;;;;;;;7.10;5.35;;;1.90;99.90;;;;;;5135178;27;20543;-69
2022/02/27 02:48:41;;;;;;;9.52;5.35;;;1.90;99.90;;;;;;5134624;27;20228;-68
2022/02/27 02:51:08;;;;;;;8.32;5.20;;;1.90;99.90;;;;;;5134870;27;20201;-69
2022/02/27 02:53:35;;;;;;;5.78;4.70;;;2.00;99.90;;;;;;5134823;27;20677;-69
2022/02/27 02:56:05;;;;;;;8.85;5.20;;;2.00;99.90;;;;;;5135036;27;20205;-69
2022/02/27 02:58:32;;;;;;;9.93;4.93;;;2.00;99.90;;;;;;5135430;27;20223;-69
2022/02/27 03:01:00;;;;;;;9.30;5.20;;;2.00;99.90;;;;;;5134724;27;20204;-68
2022/02/27 03:03:27;;;;;;;8.40;5.00;;;1.90;99.90;;;;;;5134916;27;20211;-68
2022/02/27 03:05:53;;;;;;;6.68;4.70;;;1.90;99.90;;;;;;5134876;27;20296;-69
2022/02/27 03:08:21;;;;;;;8.15;4.80;;;1.90;99.90;;;;;;5134391;27;20231;-68
2022/02/27 03:10:47;;;;;;;8.00;5.13;;;1.80;99.90;;;;;;5134573;27;20207;-68
2022/02/27 03:13:16;;;;;;;7.20;4.60;;;1.80;99.90;;;;;;5134919;27;20291;-69
2022/02/27 03:15:43;;;;;;;7.03;4.35;;;1.70;99.90;;;;;;5134754;27;20213;-69
2022/02/27 03:18:09;;;;;;;7.72;4.97;;;1.80;99.90;;;;;;5134372;27;20556;-69
2022/02/27 03:20:36;;;;;;;8.35;4.35;;;1.80;99.90;;;;;;5134897;27;20291;-69
2022/02/27 03:23:03;;;;;;;7.78;5.00;;;1.80;99.90;;;;;;5134802;27;20291;-69
2022/02/27 03:25:30;;;;;;;6.18;4.47;;;1.80;99.90;;;;;;5135892;27;20594;-69
2022/02/27 03:27:57;;;;;;;5.85;4.15;;;1.80;99.90;;;;;;5138566;27;20224;-69
2022/02/27 03:30:25;;;;;;;11.05;4.55;;;1.70;99.90;;;;;;5138539;27;20761;-68
2022/02/27 03:32:52;;;;;;;6.90;4.95;;;1.80;99.90;;;;;;5139006;27;20639;-69
2022/02/27 03:35:21;;;;;;;8.02;4.90;;;1.70;99.90;;;;;;5138640;27;20654;-68
2022/02/27 03:37:50;;;;;;;5.90;4.05;;;1.70;99.90;;;;;;5138719;27;20220;-69
2022/02/27 03:40:17;;;;;;;8.43;4.63;;;1.70;99.90;;;;;;5138560;27;20682;-68
2022/02/27 03:42:44;;;;;;;6.70;4.50;;;1.70;99.90;;;;;;5138709;27;20295;-69
2022/02/27 03:45:11;;;;;;;7.05;5.13;;;1.70;99.90;;;;;;5139104;27;20685;-68
2022/02/27 03:47:40;;;;;;;7.13;4.53;;;1.70;99.90;;;;;;5138631;27;20217;-69
2022/02/27 03:50:08;;;;;;;11.05;5.93;;;1.70;99.90;;;;;;5138322;27;20224;-69
2022/02/27 03:52:35;;;;;;;10.02;5.47;;;1.60;99.90;;;;;;5138431;27;20201;-69
2022/02/27 03:55:03;;;;;;;8.10;6.05;;;1.60;99.90;;;;;;5138508;27;20211;-69
2022/02/27 03:57:30;;;;;;;13.38;7.10;;;1.60;99.90;;;;;;5138406;27;20226;-69
2022/02/27 03:59:57;;;;;;;11.25;5.90;;;1.60;99.90;;;;;;5138191;27;20288;-68
2022/02/27 04:02:24;;;;;;;9.85;5.70;;;1.60;99.90;;;;;;5138408;27;20207;-69
2022/02/27 04:04:52;;;;;;;7.13;4.60;;;1.50;99.90;;;;;;5138421;27;20295;-69
2022/02/27 04:07:19;;;;;;;10.93;5.18;;;1.60;99.90;;;;;;5138332;27;20724;-68
2022/02/27 04:09:46;;;;;;;10.40;6.00;;;1.50;99.90;;;;;;5138059;27;20216;-68
2022/02/27 04:12:13;;;;;;;7.80;5.20;;;1.50;99.90;;;;;;5138139;27;20576;-69
2022/02/27 04:14:40;;;;;;;12.57;5.63;;;1.50;99.90;;;;;;5138159;27;20201;-68
2022/02/27 04:17:08;;;;;;;9.18;5.32;;;1.50;99.90;;;;;;5137751;27;20307;-69
2022/02/27 04:19:35;;;;;;;7.88;5.32;;;1.50;99.90;;;;;;5137838;27;20666;-69
2022/02/27 04:22:04;;;;;;;6.57;5.47;;;1.50;99.90;;;;;;5137884;27;20200;-69
2022/02/27 04:24:30;;;;;;;8.68;4.68;;;1.50;99.90;;;;;;5137824;27;20247;-69
2022/02/27 04:26:58;;;;;;;12.45;5.97;;;1.50;99.90;;;;;;5137486;27;20229;-68
2022/02/27 04:29:25;;;;;;;8.35;5.95;;;1.40;99.90;;;;;;5138059;27;20311;-68
2022/02/27 04:31:52;;;;;;;19.80;10.43;;;1.40;99.90;;;;;;5137589;27;20296;-69
2022/02/27 04:34:19;;;;;;;10.63;7.43;;;1.40;99.90;;;;;;5137946;27;20201;-69
2022/02/27 04:36:46;;;;;;;10.07;5.70;;;1.40;99.90;;;;;;5137333;27;20287;-68
2022/02/27 04:39:14;;;;;;;9.95;6.15;;;1.40;99.90;;;;;;5138021;27;20207;-68
2022/02/27 04:41:41;;;;;;;14.23;6.22;;;1.40;99.90;;;;;;5137839;27;20208;-69
2022/02/27 04:44:08;;;;;;;11.90;6.97;;;1.50;99.90;;;;;;5137529;27;20664;-69
2022/02/27 04:46:35;;;;;;;11.57;6.63;;;1.40;99.90;;;;;;5137793;27;20291;-69
2022/02/27 04:49:02;;;;;;;12.27;6.78;;;1.40;99.90;;;;;;5137586;27;20227;-69
2022/02/27 04:51:28;;;;;;;10.43;6.00;;;1.40;99.90;;;;;;5137050;27;20206;-68
2022/02/27 04:53:55;;;;;;;9.48;6.53;;;1.40;99.90;;;;;;5137429;27;20292;-68
2022/02/27 04:56:23;;;;;;;9.38;5.63;;;1.40;99.90;;;;;;5137085;27;20300;-69
2022/02/27 04:58:50;;;;;;;11.68;6.10;;;1.50;99.90;;;;;;5136942;27;20301;-69
2022/02/27 05:01:17;;;;;;;8.98;5.22;;;1.50;99.90;;;;;;5137625;27;20232;-68
2022/02/27 05:03:44;;;;;;;8.73;6.03;;;1.40;99.90;;;;;;5137541;27;20288;-68
2022/02/27 05:06:11;;;;;;;9.23;5.90;;;1.40;99.90;;;;;;5137142;27;20228;-68
2022/02/27 05:08:38;;;;;;;10.60;5.50;;;1.30;99.90;;;;;;5137241;27;20221;-69
2022/02/27 05:11:06;;;;;;;12.05;5.65;;;1.30;99.90;;;;;;5137274;27;20292;-68
2022/02/27 05:13:34;;;;;;;9.90;5.85;;;1.30;99.90;;;;;;5137033;27;20212;-68
2022/02/27 05:16:01;;;;;;;8.45;5.90;;;1.30;99.90;;;;;;5137101;27;20308;-69
2022/02/27 05:18:28;;;;;;;8.73;5.22;;;1.20;99.90;;;;;;5136576;27;20583;-69
2022/02/27 05:20:54;;;;;;;11.70;5.80;;;1.20;99.90;;;;;;5136643;27;20213;-68
2022/02/27 05:23:21;;;;;;;11.27;6.40;;;1.20;99.90;;;;;;5136790;27;20647;-68
2022/02/27 05:25:48;;;;;;;12.85;5.55;;;1.20;99.90;;;;;;5136659;27;20206;-68
2022/02/27 05:28:15;;;;;;;9.18;5.90;;;1.20;99.90;;;;;;5136313;27;20319;-69
2022/02/27 05:30:43;;;;;;;9.70;6.22;;;1.20;99.90;;;;;;5136332;27;20201;-68
2022/02/27 05:33:15;;;;;;;10.15;6.78;;;1.20;99.90;;;;;;5136529;27;20207;-68
2022/02/27 05:35:42;;;;;;;9.18;6.63;;;1.20;99.90;;;;;;5136742;27;20208;-68
2022/02/27 05:38:09;;;;;;;11.15;6.57;;;1.10;99.90;;;;;;5136152;27;20307;-68
2022/02/27 05:40:36;;;;;;;8.80;6.85;;;1.10;99.90;;;;;;5136056;27;20283;-68
2022/02/27 05:43:03;;;;;;;10.15;6.55;;;1.10;99.90;;;;;;5136621;27;20204;-68
2022/02/27 05:45:29;;;;;;;9.38;6.15;;;1.10;99.90;;;;;;5136591;27;20201;-68
2022/02/27 05:47:58;;;;;;;8.65;5.97;;;1.10;99.90;;;;;;5135386;27;20243;-68
2022/02/27 05:50:25;;;;;;;11.57;7.07;;;1.20;99.90;;;;;;5135896;27;20702;-68
2022/02/27 05:52:52;;;;;;;12.13;7.20;;;1.10;99.90;;;;;;5136328;27;20224;-68
2022/02/27 05:55:18;;;;;;;16.55;9.60;;;1.10;99.90;;;;;;5136410;27;20663;-69
2022/02/27 05:57:45;;;;;;;11.60;6.90;;;1.00;99.90;;;;;;5135950;27;20227;-68
2022/02/27 06:00:13;;;;;;;16.58;9.48;;;1.00;99.90;;;;;;5135580;27;20689;-68
2022/02/27 06:02:41;;;;;;;13.30;9.00;;;1.10;99.90;;;;;;5135857;27;20200;-68
2022/02/27 06:05:09;;;;;;;15.93;10.00;;;1.10;99.90;;;;;;5135913;27;20197;-69
2022/02/27 06:07:37;;;;;;;14.63;8.85;;;1.20;99.90;;;;;;5135608;27;20225;-68
2022/02/27 06:10:05;;;;;;;11.50;7.60;;;1.20;99.90;;;;;;5135471;27;20698;-68
2022/02/27 06:12:32;;;;;;;14.32;8.70;;;1.10;99.90;;;;;;5135809;27;20201;-68
2022/02/27 06:14:59;;;;;;;13.07;7.63;;;1.10;99.90;;;;;;5135628;27;20196;-68
2022/02/27 06:17:26;;;;;;;9.70;6.95;;;1.20;99.90;;;;;;5135264;27;20736;-68
2022/02/27 06:19:53;;;;;;;12.63;6.95;;;1.20;99.90;;;;;;5135342;27;20201;-68
2022/02/27 06:22:22;;;;;;;9.80;6.68;;;1.20;99.90;;;;;;5135719;27;20205;-68
2022/02/27 06:24:48;;;;;;;13.00;7.78;;;1.10;99.90;;;;;;5135584;27;20200;-68
2022/02/27 06:27:15;;;;;;;15.73;8.07;;;1.10;99.90;;;;;;5135186;27;20716;-68
2022/02/27 06:29:42;;;;;;;11.70;6.65;;;1.10;99.90;;;;;;5135238;27;20225;-69
2022/02/27 06:32:09;;;;;;;9.55;6.50;;;1.10;99.90;;;;;;5135212;27;20211;-68
2022/02/27 06:34:36;;;;;;;13.63;7.78;;;1.10;99.90;;;;;;5135431;27;20295;-68
2022/02/27 06:37:03;;;;;;;12.40;7.75;;;1.10;99.90;;;;;;5135141;27;20797;-69
2022/02/27 06:39:31;;;;;;;14.55;8.23;;;1.10;99.90;;;;;;5135343;27;20193;-68
2022/02/27 06:41:58;;;;;;;15.10;6.97;;;1.10;99.90;;;;;;5135009;27;20539;-68
2022/02/27 06:44:25;;;;;;;13.27;8.18;;;1.10;99.90;;;;;;5135595;27;20558;-69
2022/02/27 06:46:51;;;;;;;14.07;7.75;;;1.10;99.90;;;;;;5135334;27;20208;-69
2022/02/27 06:49:18;;;;;;;12.05;7.82;;;1.20;99.90;;;;;;5135213;27;20221;-69
2022/02/27 06:51:45;;;;;;;8.82;6.65;;;1.10;99.90;;;;;;5134905;27;20287;-69
2022/02/27 06:54:12;;;;;;;12.15;8.20;;;1.20;99.90;;;;;;5135099;27;20204;-69
2022/02/27 06:56:40;;;;;;;15.60;8.27;;;1.20;99.90;;;;;;5134901;27;20288;-69
2022/02/27 06:59:07;;;;;;;10.43;7.30;;;1.20;99.90;;;;;;5134545;27;20288;-68
2022/02/27 07:01:33;;;;;;;9.40;7.00;;;1.30;99.90;;;;;;5134855;27;20269;-68
2022/02/27 07:04:00;;;;;;;13.18;8.68;;;1.20;99.90;;;;;;5134934;27;20618;-69
2022/02/27 07:06:27;;;;;;;14.55;9.40;;;1.30;99.90;;;;;;5134932;27;20197;-68
2022/02/27 07:08:54;;;;;;;14.93;8.98;;;1.30;99.90;;;;;;5134694;27;20221;-68
2022/02/27 07:11:21;;;;;;;12.98;8.43;;;1.40;99.90;;;;;;5134481;27;20201;-68
2022/02/27 07:13:49;;;;;;;13.27;7.65;;;1.40;99.90;;;;;;5134722;27;20201;-69
2022/02/27 07:16:22;;;;;;;14.23;8.80;;;1.40;99.90;;;;;;5134970;27;20307;-68
2022/02/27 07:18:49;;;;;;;14.68;8.20;;;1.40;99.90;;;;;;5134864;27;20227;-69
2022/02/27 07:21:15;;;;;;;15.40;9.20;;;1.40;99.90;;;;;;5134664;27;20197;-68
2022/02/27 07:23:42;;;;;;;14.93;8.57;;;1.50;99.90;;;;;;5134686;27;20291;-68
2022/02/27 07:26:09;;;;;;;16.67;8.93;;;1.60;99.90;;;;;;5134499;27;20655;-69
2022/02/27 07:28:36;;;;;;;11.98;8.13;;;1.60;99.90;;;;;;5134667;27;20227;-69
2022/02/27 07:31:04;;;;;;;13.52;7.97;;;1.60;99.90;;;;;;5134533;27;20225;-68
2022/02/27 07:33:31;;;;;;;13.05;8.32;;;1.70;99.90;;;;;;5134789;27;20307;-68
2022/02/27 07:35:58;;;;;;;13.80;8.63;;;1.70;99.90;;;;;;5134575;27;20203;-68
2022/02/27 07:38:25;;;;;;;10.77;8.55;;;1.80;99.90;;;;;;5134527;27;20223;-68
2022/02/27 07:40:52;;;;;;;12.35;7.88;;;1.70;99.90;;;;;;5134440;27;20203;-68
2022/02/27 07:43:19;;;;;;;15.55;8.65;;;1.70;99.90;;;;;;5134538;27;20250;-68
2022/02/27 07:45:47;;;;;;;12.75;8.85;;;1.70;99.90;;;;;;5134523;27;20203;-68
2022/02/27 07:48:15;;;;;;;15.38;9.20;;;1.80;99.90;;;;;;5134323;27;20556;-68
2022/02/27 07:50:42;;;;;;;14.18;9.35;;;1.80;99.90;;;;;;5134232;27;20223;-69
2022/02/27 07:53:09;;;;;;;15.15;7.97;;;1.90;99.90;;;;;;5134480;27;20205;-68
2022/02/27 07:55:36;;;;;;;16.55;9.57;;;2.00;99.90;;;;;;5134421;27;20654;-69
2022/02/27 07:58:03;;;;;;;12.07;8.30;;;2.10;99.90;;;;;;5134402;27;20217;-68
2022/02/27 08:00:29;;;;;;;19.02;10.07;;;2.20;99.90;;;;;;5134525;27;20292;-68
2022/02/27 08:02:56;;;;;;;15.32;9.65;;;2.20;99.90;;;;;;5134596;28;20572;-68
2022/02/27 08:05:24;;;;;;;14.15;8.35;;;2.30;99.90;;;;;;5134400;27;20291;-68
2022/02/27 08:07:55;;;;;;;13.10;8.52;;;2.30;99.90;;;;;;5134623;27;20577;-68
2022/02/27 08:10:22;;;;;;;13.57;8.68;;;2.30;99.90;;;;;;5134172;27;20229;-69
2022/02/27 08:12:49;;;;;;;16.58;9.18;;;2.30;99.90;;;;;;5137758;27;20207;-68
2022/02/27 08:15:16;;;;;;;16.80;9.05;;;2.20;99.90;;;;;;5138315;27;20295;-68
2022/02/27 08:17:44;;;;;;;14.68;9.50;;;2.10;99.90;;;;;;5138247;27;20254;-68
2022/02/27 08:20:12;;;;;;;13.65;8.55;;;2.20;99.90;;;;;;5138176;27;20553;-68
2022/02/27 08:22:40;;;;;;;13.02;9.73;;;2.30;99.90;;;;;;5137970;27;20654;-69
2022/02/27 08:25:09;;;;;;;16.10;8.73;;;2.40;99.90;;;;;;5138148;27;20236;-69
2022/02/27 08:27:36;;;;;;;12.65;8.90;;;2.30;99.90;;;;;;5137544;27;20233;-68
2022/02/27 08:30:04;;;;;;;12.18;8.93;;;2.40;99.90;;;;;;5137857;27;20220;-68
2022/02/27 08:32:31;;;;;;;16.88;9.43;;;2.50;99.90;;;;;;5138062;27;20223;-69
2022/02/27 08:34:59;;;;;;;13.48;8.90;;;2.60;99.90;;;;;;5137927;27;20536;-68
2022/02/27 08:37:26;;;;;;;13.35;8.50;;;2.70;99.90;;;;;;5137705;27;20221;-69
2022/02/27 08:39:54;;;;;;;12.00;8.40;;;2.80;99.90;;;;;;5137744;27;20288;-68
2022/02/27 08:42:21;;;;;;;12.80;9.05;;;3.00;99.90;;;;;;5137804;27;20209;-69
2022/02/27 08:44:47;;;;;;;15.07;8.98;;;3.00;99.90;;;;;;5137549;27;20295;-68
2022/02/27 08:47:14;;;;;;;10.75;7.90;;;3.10;99.90;;;;;;5137439;27;20311;-68
2022/02/27 08:49:41;;;;;;;11.70;8.45;;;3.20;99.90;;;;;;5137286;27;20224;-68
2022/02/27 08:52:08;;;;;;;12.18;8.30;;;3.30;99.90;;;;;;5137389;27;20196;-69
2022/02/27 08:54:36;;;;;;;10.73;7.57;;;3.40;99.90;;;;;;5137245;27;20692;-68
2022/02/27 08:57:05;;;;;;;13.40;8.20;;;3.50;99.90;;;;;;5137291;27;20220;-69
2022/02/27 08:59:32;;;;;;;11.70;8.13;;;3.60;99.90;;;;;;5137043;27;20670;-69
2022/02/27 09:01:59;;;;;;;12.75;8.40;;;3.60;99.90;;;;;;5137204;27;20197;-69
2022/02/27 09:04:25;;;;;;;15.43;7.93;;;3.70;99.90;;;;;;5137201;27;20207;-69
2022/02/27 09:06:52;;;;;;;10.75;6.72;;;3.80;99.90;;;;;;5137002;27;20662;-69
2022/02/27 09:09:20;;;;;;;11.98;6.95;;;3.80;99.90;;;;;;5137301;27;20295;-68
2022/02/27 09:11:47;;;;;;;13.35;6.72;;;3.90;99.90;;;;;;5136821;27;20216;-68
2022/02/27 09:14:16;;;;;;;9.00;5.50;;;4.10;99.90;;;;;;5137034;27;20304;-68
2022/02/27 09:16:43;;;;;;;8.20;5.72;;;4.20;99.90;;;;;;5137014;27;20197;-68
2022/02/27 09:19:09;;;;;;;7.53;6.03;;;4.30;99.90;;;;;;5136728;27;20203;-68
2022/02/27 09:21:36;;;;;;;7.45;5.72;;;4.40;99.90;;;;;;5136652;27;20566;-68
2022/02/27 09:24:03;;;;;;;14.27;6.18;;;4.50;99.90;;;;;;5136856;27;20201;-68
2022/02/27 09:26:30;;;;;;;10.75;6.10;;;4.60;99.90;;;;;;5136553;27;20295;-68
2022/02/27 09:28:57;;;;;;;9.38;6.40;;;4.70;99.90;;;;;;5136526;27;20307;-68
2022/02/27 09:31:25;;;;;;;7.68;5.70;;;4.80;99.90;;;;;;5136687;27;20231;-68
2022/02/27 09:33:52;;;;;;;8.30;5.95;;;4.90;99.90;;;;;;5136877;27;20201;-69
2022/02/27 09:36:19;;;;;;;6.72;5.95;;;5.00;99.90;;;;;;5136679;27;20283;-68
2022/02/27 09:38:45;;;;;;;9.38;6.45;;;5.10;99.90;;;;;;5136649;27;20571;-69
2022/02/27 09:41:13;;;;;;;8.63;5.97;;;5.20;99.90;;;;;;5136393;27;20211;-68
2022/02/27 09:43:41;;;;;;;9.35;6.40;;;5.30;99.90;;;;;;5136826;27;20227;-69
2022/02/27 09:46:08;;;;;;;8.57;6.30;;;5.40;99.90;;;;;;5136427;27;20660;-69
2022/02/27 09:48:37;;;;;;;10.07;6.28;;;5.50;99.90;;;;;;5136273;27;20231;-69
2022/02/27 09:51:04;;;;;;;9.20;6.35;;;5.60;99.90;;;;;;5136203;27;20252;-68
2022/02/27 09:53:31;;;;;;;9.18;5.70;;;5.70;99.90;;;;;;5136344;27;20303;-68
2022/02/27 09:55:58;;;;;;;6.85;5.78;;;5.80;99.60;;;;;;5136434;27;20219;-68
2022/02/27 09:58:27;;;;;;;8.93;5.05;;;6.00;99.40;;;;;;5135981;27;20748;-69
2022/02/27 10:00:54;;;;;;;5.95;5.03;;;6.20;98.40;;;;;;5135853;27;20200;-69
2022/02/27 10:03:27;;;;;;;6.60;5.78;;;6.30;96.70;;;;;;5135928;27;20208;-69
2022/02/27 10:06:00;;;;;;;7.20;5.40;;;6.40;96.60;;;;;;5136068;27;20207;-68
2022/02/27 10:08:36;;;;;;;6.72;6.03;;;6.40;96.00;;;;;;5135635;27;20709;-68
2022/02/27 10:11:03;;;;;;;7.70;5.78;;;6.40;95.50;;;;;;5135596;27;20220;-68
2022/02/27 10:13:35;;;;;;;8.80;5.90;;;6.50;95.50;;;;;;5135771;27;20207;-69
2022/02/27 10:16:10;;;;;;;10.20;6.47;;;6.70;95.80;;;;;;5135848;27;20287;-69
2022/02/27 10:18:41;;;;;;;6.15;5.55;;;7.00;94.80;;;;;;5135828;27;20258;-69
2022/02/27 10:21:27;;;;;;;7.40;5.10;;;7.30;93.40;;;;;;5135746;27;20199;-69
2022/02/27 10:24:01;;;;;;;6.13;5.15;;;7.80;92.10;;;;;;5135707;27;20218;-69
2022/02/27 10:26:29;;;;;;;8.27;5.93;;;8.10;91.60;;;;;;5135578;27;20291;-69
2022/02/27 10:29:10;;;;;;;5.90;5.30;;;8.60;90.50;;;;;;5135589;27;20229;-69
2022/02/27 10:31:38;;;;;;;6.20;5.13;;;9.20;86.80;;;;;;5135030;27;20224;-68
2022/02/27 10:34:20;;;;;;;6.20;5.32;;;9.70;82.70;;;;;;5134992;27;20208;-69
2022/02/27 10:36:54;;;;;;;6.40;5.30;;;10.00;81.30;;;;;;5135434;27;20253;-69
2022/02/27 10:39:28;;;;;;;6.70;5.20;;;9.90;78.60;;;;;;5135268;27;20189;-69
2022/02/27 10:41:55;;;;;;;8.10;4.90;;;9.90;75.90;;;;;;5135136;27;20200;-69
2022/02/27 10:44:24;;;;;;;5.50;4.95;;;10.00;73.30;;;;;;5135184;27;20206;-69
2022/02/27 10:47:08;;;;;;;6.80;4.85;;;9.90;74.20;;;;;;5134933;27;20205;-69
2022/02/27 10:49:35;;;;;;;5.40;4.60;;;9.70;71.50;;;;;;5134833;27;20189;-69
2022/02/27 10:52:16;;;;;;;6.32;5.43;;;9.70;73.20;;;;;;5134599;27;20316;-69
2022/02/27 10:54:45;;;;;;;6.45;4.53;;;9.70;74.30;;;;;;5135212;27;20207;-69
2022/02/27 10:57:25;;;;;;;4.88;4.22;;;9.80;73.90;;;;;;5135066;27;20227;-69
2022/02/27 10:59:52;;;;;;;5.35;4.68;;;9.70;70.10;;;;;;5134624;27;20193;-68
2022/02/27 11:02:20;;;;;;;4.68;4.25;;;9.40;67.90;;;;;;5135158;27;20291;-69
2022/02/27 11:04:48;;;;;;;3.50;3.20;;;9.20;68.20;;;;;;5135144;27;20643;-69
2022/02/27 11:07:16;;;;;;;4.50;3.97;;;9.10;65.00;;;;;;5135086;27;20310;-69
2022/02/27 11:09:45;;;;;;;4.45;3.72;;;9.00;65.90;;;;;;5134998;27;20211;-68
2022/02/27 11:12:12;;;;;;;5.03;3.90;;;9.20;66.30;;;;;;5134774;27;20216;-69
2022/02/27 11:14:42;;;;;;;4.03;3.67;;;9.20;65.20;;;;;;5135184;27;20265;-69
2022/02/27 11:17:10;;;;;;;5.20;3.72;;;9.50;65.40;;;;;;5134776;27;20217;-69
2022/02/27 11:19:38;;;;;;;3.92;3.58;;;9.80;63.40;;;;;;5134532;27;20246;-69
2022/02/27 11:22:05;;;;;;;4.00;3.60;;;10.00;61.00;;;;;;5134568;27;20682;-69
2022/02/27 11:24:36;;;;;;;4.50;3.63;;;10.60;59.70;;;;;;5134915;27;20582;-69
2022/02/27 11:27:04;;;;;;;4.10;3.70;;;11.40;58.30;;;;;;5134582;27;20233;-69
2022/02/27 11:29:32;;;;;;;4.15;3.75;;;12.20;55.90;;;;;;5134674;27;20209;-69
2022/02/27 11:32:00;;;;;;;3.88;3.58;;;12.80;53.90;;;;;;5134604;27;20576;-69
2022/02/27 11:34:28;;;;;;;5.90;4.18;;;13.10;52.40;;;;;;5135058;27;20580;-69
2022/02/27 11:36:55;;;;;;;3.95;3.60;;;13.00;51.20;;;;;;5134789;27;20204;-69
2022/02/27 11:42:08;;;;;;;4.07;3.75;;;13.10;50.40;;;;;;5134942;28;20200;-67
2022/02/27 11:44:37;;;;;;;4.25;3.85;;;13.30;50.50;;;;;;5134661;27;20208;-67
2022/02/27 11:47:06;;;;;;;3.78;3.38;;;13.20;50.30;;;;;;5136687;27;20224;-67
2022/02/27 11:49:33;;;;;;;4.90;4.40;;;13.20;49.90;;;;;;5139074;27;20289;-67
2022/02/27 11:52:07;;;;;;;4.60;4.20;;;13.00;50.50;;;;;;5138503;27;20555;-66
2022/02/27 11:54:46;;;;;;;4.47;3.97;;;12.80;49.60;;;;;;5138862;27;20562;-67
2022/02/27 11:57:19;;;;;;;4.22;3.83;;;12.50;50.10;;;;;;5138639;27;20310;-69
2022/02/27 11:59:58;;;;;;;4.40;4.00;;;12.20;51.50;;;;;;5138899;27;20271;-69
2022/02/27 12:02:27;;;;;;;5.75;5.22;;;11.60;51.80;;;;;;5138529;27;20287;-69
2022/02/27 12:04:55;;;;;;;5.18;4.53;;;11.10;52.90;;;;;;5138457;27;20306;-69
2022/02/27 12:07:23;;;;;;;7.40;5.45;;;11.00;54.00;;;;;;5138090;27;20308;-69
2022/02/27 12:10:02;;;;;;;6.65;5.22;;;10.80;54.50;;;;;;5138151;27;20296;-68
2022/02/27 12:12:55;;;;;;;6.45;5.10;;;10.50;54.60;;;;;;5138376;27;20316;-69
2022/02/27 12:15:24;;;;;;;6.20;5.40;;;10.90;55.70;;;;;;5134850;27;20287;-69
2022/02/27 12:17:55;;;;;;;5.78;5.03;;;11.70;55.00;;;;;;5138531;27;20227;-69
2022/02/27 12:20:41;;;;;;;6.38;5.78;;;12.60;54.30;;;;;;5137893;27;20295;-69
2022/02/27 12:23:09;;;;;;;5.70;5.20;;;13.40;53.00;;;;;;5138361;27;20207;-69
2022/02/27 12:25:38;;;;;;;6.07;5.47;;;13.60;51.10;;;;;;5138497;27;20686;-69
2022/02/27 12:28:07;;;;;;;6.65;5.40;;;14.30;50.50;;;;;;5137847;27;20231;-69
2022/02/27 12:30:34;;;;;;;5.55;5.00;;;14.90;49.60;;;;;;5137816;27;20208;-69
2022/02/27 12:33:07;;;;;;;6.30;5.40;;;15.80;48.70;;;;;;5137718;27;20207;-69
2022/02/27 12:35:34;;;;;;;5.40;4.90;;;16.10;46.60;;;;;;5137774;27;20715;-70
2022/02/27 12:38:05;;;;;;;4.90;4.50;;;16.30;45.40;;;;;;5137831;27;20224;-70
2022/02/27 12:40:33;;;;;;;5.90;5.40;;;16.40;45.80;;;;;;5137607;27;20195;-69
2022/02/27 12:43:07;;;;;;;5.60;5.10;;;15.60;45.60;;;;;;5138115;27;20290;-70
2022/02/27 12:45:36;;;;;;;5.10;4.60;;;15.30;46.60;;;;;;5137685;27;20203;-70
2022/02/27 12:48:10;;;;;;;5.18;4.75;;;15.60;46.40;;;;;;5137484;27;20307;-70
2022/02/27 12:50:44;;;;;;;6.55;4.70;;;15.80;44.90;;;;;;5136999;27;20317;-69
2022/02/27 12:53:11;;;;;;;5.45;4.95;;;15.50;44.60;;;;;;5137900;27;20204;-70
2022/02/27 12:55:38;;;;;;;5.10;4.60;;;15.10;44.10;;;;;;5138013;27;20421;-70
2022/02/27 12:58:08;;;;;;;4.82;4.32;;;14.70;44.10;;;;;;5137351;27;20230;-70